カラチ の空港の天気 - METARとTAF

ジンナー国際空港(カラチ) ( OPKC / KHI ) - パキスタン Karachi
飛行場実況気象(Metar)
観測時間02/28 04:55 PKT (02/27 23:55 UTC)
風向・風速静穏 0m/s
視程6000m
天気現象
全天の8割程度の雲 雲底高度 3050m
気温23℃
湿度57%
気圧1014hPa
METAROPKC 272355Z 00000KT 6000 BKN100 23/14 Q1014 NOSIG
過去の天気等 Google飛行場航空写真 Wunderground天気予報

過去48時間のMETAR

飛行場予報(TAF)
発表時間: 2/28 02:30 PKT (2/27 21:30 UTC)
予報対象時間: 28日5時 PKT ~ 1日11時 PKT
風向・風速西 3m/s 瞬間風速 8m/s
視程6,000m
なし
28日5時 PKT ~ 28日9時 PKT に一時的に
風向・風速西北西 3m/s
視程5,000m
天気現象煙霧
なし
28日23時 PKT から
風向・風速北西 4m/s
視程5,000m
天気現象煙霧
なし
TAF OPKC 272130Z 2800/0106 26005G15KT 6000 NSC
TEMPO 2800/2804 29005KT 5000 HZ NSC
FM 281800 31007KT 5000 HZ NSC